Time;durP1;ratioP1;P1;durP2;ratioP2;P2;SDS_P1;SDS_P2;PMS_P1;PMS_P2;Temp;Humidity;BMP_temperature;BMP_pressure;BME280_temperature;BME280_humidity;BME280_pressure;Samples;Min_cycle;Max_cycle;Signal;HPM_P1;HPM_P2
2022/11/05 00:10:29;;;;;;;3.70;3.00;;;9.40;99.90;9.30;99978.00;;;;4898031;28;87863;-66
2022/11/05 00:18:26;;;;;;;4.13;3.33;;;9.40;99.90;9.30;99992.00;;;;4890437;28;87712;-65
2022/11/05 00:20:52;;;;;;;4.50;2.50;;;8.90;99.90;9.30;100002.00;;;;4895858;28;118767;-66
2022/11/05 00:26:08;;;;;;;3.90;3.30;;;9.40;99.90;9.30;100007.00;;;;4890936;28;87304;-66
2022/11/05 00:28:35;;;;;;;4.47;3.20;;;9.40;99.90;9.30;99996.00;;;;4896905;28;89239;-66
2022/11/05 00:31:04;;;;;;;4.43;3.37;;;9.40;99.90;9.30;100001.00;;;;4897542;28;94791;-65
2022/11/05 00:33:31;;;;;;;2.70;2.43;;;9.40;99.90;9.30;100007.00;;;;4897438;28;100799;-65
2022/11/05 00:35:57;;;;;;;6.03;3.93;;;9.40;99.90;9.30;100000.00;;;;4903698;28;88395;-65
2022/11/05 00:38:23;;;;;;;4.10;3.13;;;9.40;99.90;9.30;100007.00;;;;4899191;28;87824;-66
2022/11/05 00:40:49;;;;;;;6.43;4.47;;;9.40;99.90;9.30;100008.00;;;;4898137;28;88492;-65
2022/11/05 00:45:59;;;;;;;3.57;3.27;;;9.40;99.90;9.30;100011.00;;;;4896522;28;87936;-65
2022/11/05 00:51:09;;;;;;;3.83;3.53;;;9.40;99.90;9.30;100017.00;;;;4895970;28;87916;-65
2022/11/05 00:53:35;;;;;;;5.70;4.20;;;9.40;99.90;9.30;100006.00;;;;4898343;28;116829;-66
2022/11/05 00:56:01;;;;;;;4.37;3.70;;;9.40;99.90;9.30;100014.00;;;;4895513;28;88183;-66
2022/11/05 00:58:28;;;;;;;6.43;4.10;;;9.40;99.90;9.30;100023.00;;;;4895586;28;88952;-66
2022/11/05 01:00:58;;;;;;;6.37;3.83;;;9.40;99.90;9.30;100015.00;;;;4912300;28;88347;-67
2022/11/05 01:03:28;;;;;;;4.90;3.83;;;9.40;99.90;9.30;100033.00;;;;4902508;28;88234;-67
2022/11/05 01:06:05;;;;;;;5.70;3.87;;;9.30;99.90;9.30;100015.00;;;;4895492;28;103667;-67
2022/11/05 01:08:31;;;;;;;4.93;4.00;;;9.40;99.90;9.30;100031.00;;;;4897441;28;88011;-66
2022/11/05 01:10:58;;;;;;;6.67;4.57;;;9.40;99.90;9.30;100028.00;;;;4901746;28;115444;-67
2022/11/05 01:13:27;;;;;;;9.20;4.23;;;9.30;99.90;9.30;100025.00;;;;4898157;28;117123;-68
2022/11/05 01:15:54;;;;;;;8.10;4.67;;;9.30;99.90;9.20;100028.00;;;;4899318;28;104941;-67
2022/11/05 01:18:21;;;;;;;4.60;3.73;;;9.30;99.90;9.20;100028.00;;;;4896333;28;91061;-67
2022/11/05 01:20:47;;;;;;;5.17;3.83;;;9.30;99.90;9.30;100038.00;;;;4893120;28;88881;-66
2022/11/05 01:23:13;;;;;;;6.40;4.57;;;9.30;99.90;9.20;100046.00;;;;4900336;28;117141;-66
2022/11/05 01:25:39;;;;;;;6.10;4.87;;;9.30;99.90;9.30;100036.00;;;;4894666;28;102297;-66
2022/11/05 01:28:05;;;;;;;5.40;3.80;;;9.30;99.90;9.20;100042.00;;;;4896625;28;93010;-66
2022/11/05 01:30:31;;;;;;;5.90;4.47;;;9.30;99.90;9.20;100039.00;;;;4895035;28;89059;-66
2022/11/05 01:32:57;;;;;;;7.77;5.23;;;9.30;99.90;9.20;100037.00;;;;4902880;28;88745;-66
2022/11/05 01:35:23;;;;;;;6.97;4.37;;;9.30;99.90;9.20;100036.00;;;;4896516;28;88883;-67
2022/11/05 01:37:49;;;;;;;7.00;5.40;;;9.30;99.90;9.20;100046.00;;;;4894003;28;108835;-66
2022/11/05 01:40:22;;;;;;;5.37;4.10;;;9.30;99.90;9.20;100041.00;;;;4897885;28;117957;-66
2022/11/05 01:42:48;;;;;;;6.17;5.03;;;9.30;99.90;9.20;100044.00;;;;4894337;28;87971;-66
2022/11/05 01:45:24;;;;;;;6.83;5.07;;;9.30;99.90;9.20;100043.00;;;;4895016;28;105947;-67
2022/11/05 01:48:12;;;;;;;4.83;4.33;;;9.30;99.90;9.20;100044.00;;;;4895113;28;88748;-67
2022/11/05 01:50:59;;;;;;;7.40;5.03;;;9.30;99.90;9.20;100048.00;;;;4891829;28;110401;-66
2022/11/05 01:53:32;;;;;;;7.27;5.10;;;9.30;99.90;9.20;100065.00;;;;4896588;28;87935;-67
2022/11/05 01:56:29;;;;;;;10.10;5.40;;;9.30;99.90;9.20;100058.00;;;;4895010;28;104103;-67
2022/11/05 01:59:36;;;;;;;5.53;5.00;;;9.30;99.90;9.10;100076.00;;;;4899012;28;102028;-67
2022/11/05 02:02:05;;;;;;;5.80;4.87;;;9.30;99.90;9.20;100077.00;;;;4909977;28;108708;-66
2022/11/05 02:04:35;;;;;;;9.17;5.27;;;9.30;99.90;9.20;100077.00;;;;4893545;28;88534;-67
2022/11/05 02:07:03;;;;;;;4.80;4.30;;;9.30;99.90;9.20;100088.00;;;;4898068;28;103771;-66
2022/11/05 02:09:52;;;;;;;5.93;4.10;;;9.30;99.90;9.20;100093.00;;;;4897133;28;87851;-66
2022/11/05 02:12:19;;;;;;;6.63;5.13;;;9.30;99.90;9.20;100099.00;;;;4895292;28;99944;-66
2022/11/05 02:14:45;;;;;;;5.23;4.67;;;9.30;99.90;9.20;100087.00;;;;4894824;28;117035;-68
2022/11/05 02:17:30;;;;;;;7.80;6.00;;;9.30;99.90;9.20;100097.00;;;;4898062;28;111476;-67
2022/11/05 02:20:29;;;;;;;9.03;5.67;;;9.30;99.90;9.20;100100.00;;;;4899019;28;87960;-65
2022/11/05 02:23:38;;;;;;;8.40;4.83;;;9.90;99.90;9.20;100094.00;;;;4895215;28;88154;-66
2022/11/05 02:26:13;;;;;;;6.93;4.67;;;9.30;99.90;9.20;100100.00;;;;4899666;28;88105;-65
2022/11/05 02:29:09;;;;;;;7.53;5.23;;;9.30;99.90;9.20;100106.00;;;;4904782;28;88136;-65
2022/11/05 02:32:16;;;;;;;4.30;3.70;;;9.30;99.90;9.20;100102.00;;;;4898443;28;88077;-66
2022/11/05 02:35:02;;;;;;;4.93;3.27;;;9.30;99.90;9.20;100092.00;;;;4898347;28;87563;-66
2022/11/05 02:37:39;;;;;;;5.90;4.90;;;9.30;99.90;9.20;100099.00;;;;4902073;28;87811;-66
2022/11/05 02:40:28;;;;;;;7.00;4.27;;;9.30;99.90;9.20;100102.00;;;;4902233;28;87754;-65
2022/11/05 02:43:04;;;;;;;5.23;3.90;;;9.30;99.90;9.20;100108.00;;;;4896901;28;88879;-66
2022/11/05 02:46:41;;;;;;;6.27;3.57;;;9.30;99.90;9.20;100106.00;;;;4919742;28;111681;-66
2022/11/05 02:49:21;;;;;;;5.07;4.57;;;9.30;99.90;9.20;100129.00;;;;4900011;28;87866;-65
2022/11/05 02:51:59;;;;;;;4.57;4.17;;;9.30;99.90;9.20;100124.00;;;;4895607;28;105707;-66
2022/11/05 02:54:32;;;;;;;6.77;3.90;;;9.30;99.90;9.20;100139.00;;;;4876608;28;106113;-66
2022/11/05 02:57:00;;;;;;;6.10;3.60;;;9.30;99.90;9.20;100129.00;;;;4899367;28;88313;-65
2022/11/05 02:59:25;;;;;;;6.97;3.97;;;9.30;99.90;9.20;100128.00;;;;4901135;28;88371;-64
2022/11/05 03:01:52;;;;;;;3.93;3.50;;;9.30;99.90;9.20;100137.00;;;;4897466;28;109361;-65
2022/11/05 03:04:21;;;;;;;10.13;3.80;;;9.30;99.90;9.20;100137.00;;;;4895703;28;109372;-65
2022/11/05 03:07:18;;;;;;;6.00;3.60;;;9.30;99.90;9.20;100140.00;;;;4895246;28;109574;-64
2022/11/05 03:10:20;;;;;;;4.70;3.73;;;9.30;99.90;9.20;100147.00;;;;4899421;28;109774;-64
2022/11/05 03:12:55;;;;;;;11.57;4.53;;;9.30;99.90;9.20;100147.00;;;;4911448;28;102923;-64
2022/11/05 03:15:43;;;;;;;6.63;4.30;;;9.30;99.90;9.20;100144.00;;;;4898358;28;88187;-64
2022/11/05 03:18:42;;;;;;;5.27;3.40;;;9.30;99.90;9.20;100151.00;;;;4894900;28;111672;-66
2022/11/05 03:21:17;;;;;;;3.83;3.43;;;9.30;99.90;9.20;100161.00;;;;4898998;28;89414;-65
2022/11/05 03:23:55;;;;;;;7.87;3.43;;;9.30;99.90;9.20;100165.00;;;;4895923;28;100580;-66
2022/11/05 03:26:46;;;;;;;11.53;4.23;;;9.20;99.90;9.20;100176.00;;;;4896517;28;87902;-66
2022/11/05 03:29:22;;;;;;;4.73;4.20;;;9.30;99.90;9.20;100179.00;;;;4899607;28;88177;-66
2022/11/05 03:31:51;;;;;;;4.40;3.57;;;9.30;99.90;9.20;100181.00;;;;4898738;28;88644;-65
2022/11/05 03:34:22;;;;;;;13.20;3.60;;;9.30;99.90;9.20;100181.00;;;;4897197;28;105449;-65
2022/11/05 03:36:52;;;;;;;7.47;4.77;;;9.30;99.90;9.20;100183.00;;;;4892823;28;105160;-65
2022/11/05 03:39:28;;;;;;;6.23;4.63;;;9.20;99.90;9.20;100185.00;;;;4898399;28;111666;-65
2022/11/05 03:41:56;;;;;;;8.07;6.00;;;9.30;99.90;9.20;100195.00;;;;4899293;28;88107;-65
2022/11/05 03:44:29;;;;;;;4.23;3.83;;;9.30;99.90;9.20;100199.00;;;;4897177;28;107135;-67
2022/11/05 03:47:03;;;;;;;8.00;4.57;;;9.30;99.90;9.20;100198.00;;;;4901634;28;106444;-66
2022/11/05 03:49:38;;;;;;;6.57;4.57;;;9.30;99.90;9.20;100194.00;;;;4901410;28;112287;-67
2022/11/05 03:52:11;;;;;;;6.13;4.73;;;9.30;99.90;9.20;100188.00;;;;4895985;28;88776;-66
2022/11/05 03:54:36;;;;;;;11.70;5.90;;;9.30;99.90;9.20;100193.00;;;;4909814;28;87047;-67
2022/11/05 03:57:18;;;;;;;4.37;3.70;;;9.30;99.90;9.20;100197.00;;;;4891344;28;107760;-66
2022/11/05 03:59:47;;;;;;;6.73;5.60;;;9.30;99.90;9.20;100205.00;;;;4914318;28;89202;-66
2022/11/05 04:02:16;;;;;;;10.70;5.33;;;9.20;99.90;9.20;100197.00;;;;4896013;28;99227;-68
2022/11/05 04:04:42;;;;;;;9.20;5.63;;;9.30;99.90;9.20;100203.00;;;;4894560;28;87735;-66
2022/11/05 04:15:23;;;;;;;8.20;4.03;;;9.30;99.90;9.20;100211.00;;;;4895852;28;87769;-65
2022/11/05 04:17:49;;;;;;;12.80;5.63;;;9.30;99.90;9.20;100226.00;;;;4894983;28;87920;-64
2022/11/05 04:25:47;;;;;;;7.33;4.60;;;9.30;99.90;9.20;100230.00;;;;4892193;28;87765;-65
2022/11/05 04:28:13;;;;;;;7.07;4.57;;;9.30;99.90;9.20;100236.00;;;;4893485;28;89088;-66
2022/11/05 04:30:39;;;;;;;7.87;6.03;;;9.20;99.90;9.20;100238.00;;;;4909999;28;88136;-66
2022/11/05 04:33:13;;;;;;;6.27;4.93;;;9.30;99.90;9.10;100250.00;;;;4897323;28;99779;-67
2022/11/05 04:35:43;;;;;;;7.07;5.60;;;9.20;99.90;9.10;100248.00;;;;4895721;28;88148;-67
2022/11/05 04:38:18;;;;;;;8.37;4.80;;;9.20;99.90;9.10;100245.00;;;;4893155;28;88526;-66
2022/11/05 04:40:46;;;;;;;6.67;4.70;;;9.20;99.90;9.10;100243.00;;;;4895214;28;88240;-66
2022/11/05 04:43:18;;;;;;;9.17;4.53;;;9.20;99.90;9.10;100244.00;;;;4896451;28;88678;-66
2022/11/05 04:45:44;;;;;;;6.67;4.33;;;9.20;99.90;9.10;100246.00;;;;4895803;28;87221;-66
2022/11/05 04:48:10;;;;;;;5.37;4.87;;;9.20;99.90;9.10;100256.00;;;;4894071;28;87744;-66
2022/11/05 04:50:36;;;;;;;7.33;4.57;;;9.10;99.90;9.10;100248.00;;;;4895677;28;117225;-66
2022/11/05 04:53:02;;;;;;;5.07;4.57;;;9.10;99.90;9.10;100257.00;;;;4895157;28;113631;-66
2022/11/05 04:55:28;;;;;;;3.77;3.37;;;9.20;99.90;9.00;100259.00;;;;4900342;28;110581;-65
2022/11/05 04:57:54;;;;;;;5.77;4.53;;;9.10;99.90;9.00;100272.00;;;;4900342;28;108971;-65
2022/11/05 05:00:22;;;;;;;5.20;4.23;;;9.10;99.90;9.00;100274.00;;;;4894598;28;99996;-66
2022/11/05 05:02:48;;;;;;;7.73;4.97;;;9.10;99.90;9.00;100278.00;;;;4902374;28;88343;-66
2022/11/05 05:05:14;;;;;;;6.53;4.00;;;9.10;99.90;9.00;100277.00;;;;4895316;28;90542;-66
2022/11/05 05:07:40;;;;;;;4.90;3.87;;;9.10;99.90;9.00;100282.00;;;;4897601;28;88111;-65
2022/11/05 05:10:08;;;;;;;8.07;4.60;;;9.10;99.90;9.00;100289.00;;;;4894964;28;88663;-65
2022/11/05 05:12:34;;;;;;;6.67;4.63;;;9.10;99.90;9.00;100285.00;;;;4899680;28;92260;-66
2022/11/05 05:15:00;;;;;;;10.30;4.80;;;9.10;99.90;9.00;100289.00;;;;4900581;28;110292;-66
2022/11/05 05:17:26;;;;;;;5.90;5.33;;;9.10;99.90;9.00;100300.00;;;;4896516;28;110363;-66
2022/11/05 05:22:36;;;;;;;7.30;4.47;;;9.00;99.90;9.00;100299.00;;;;4898329;28;87725;-67
2022/11/05 05:25:02;;;;;;;4.63;4.17;;;9.00;99.90;8.90;100295.00;;;;4898150;28;107238;-66
2022/11/05 05:27:29;;;;;;;4.80;3.97;;;9.00;99.90;8.90;100299.00;;;;4896259;28;87802;-66
2022/11/05 05:29:58;;;;;;;6.37;5.33;;;9.00;99.90;8.90;100294.00;;;;4899105;28;117738;-67
2022/11/05 05:32:25;;;;;;;4.87;4.37;;;9.00;99.90;8.90;100301.00;;;;4899132;28;87830;-67
2022/11/05 05:34:51;;;;;;;7.47;4.30;;;9.00;99.90;8.90;100292.00;;;;4897429;28;86964;-67
2022/11/05 05:37:17;;;;;;;6.40;4.27;;;9.00;99.90;8.90;100309.00;;;;4893407;28;87847;-67
2022/11/05 05:39:44;;;;;;;6.53;3.90;;;9.00;99.90;8.90;100307.00;;;;4895538;28;95936;-67
2022/11/05 05:42:11;;;;;;;6.67;4.80;;;9.00;99.90;8.90;100306.00;;;;4901832;28;88878;-67
2022/11/05 05:44:37;;;;;;;4.23;3.83;;;9.00;99.90;8.90;100319.00;;;;4898532;28;87795;-67
2022/11/05 05:47:03;;;;;;;4.27;3.33;;;9.00;99.90;8.90;100313.00;;;;4893158;28;109434;-68
2022/11/05 05:49:29;;;;;;;11.53;4.40;;;9.00;99.90;8.90;100311.00;;;;4894790;28;104187;-68
2022/11/05 05:51:55;;;;;;;5.10;4.20;;;9.00;99.90;8.80;100314.00;;;;4893646;28;116216;-67
2022/11/05 05:54:21;;;;;;;7.93;4.83;;;8.90;99.90;8.80;100316.00;;;;4892188;28;87975;-67
2022/11/05 05:56:47;;;;;;;7.33;5.30;;;8.90;99.90;8.90;100322.00;;;;4891845;28;88039;-67
2022/11/05 05:59:13;;;;;;;6.20;4.77;;;8.90;99.90;8.90;100334.00;;;;4894583;28;102192;-67
2022/11/05 06:01:39;;;;;;;6.43;4.70;;;9.00;99.90;8.80;100334.00;;;;4894709;28;115070;-67
2022/11/05 06:04:04;;;;;;;7.23;4.20;;;9.00;99.90;8.80;100322.00;;;;4900965;28;88050;-66
2022/11/05 06:06:30;;;;;;;8.87;3.97;;;8.90;99.90;8.80;100324.00;;;;4897752;28;108677;-68
2022/11/05 06:08:56;;;;;;;8.07;5.90;;;8.90;99.90;8.80;100341.00;;;;4899887;28;117064;-66
2022/11/05 06:11:23;;;;;;;6.07;4.60;;;8.90;99.90;8.80;100337.00;;;;4896716;28;116200;-67
2022/11/05 06:13:49;;;;;;;4.07;3.63;;;8.90;99.90;8.80;100342.00;;;;4899646;28;87929;-67
2022/11/05 06:16:15;;;;;;;6.53;4.43;;;8.80;99.90;8.80;100347.00;;;;4902868;28;88118;-67
2022/11/05 06:18:41;;;;;;;7.97;5.10;;;8.90;99.90;8.80;100355.00;;;;4903344;28;88305;-67
2022/11/05 06:21:13;;;;;;;7.07;4.73;;;8.90;99.90;8.80;100359.00;;;;4898462;28;117673;-67
2022/11/05 06:23:41;;;;;;;5.20;3.87;;;8.90;99.90;8.80;100361.00;;;;4900407;28;86916;-67
2022/11/05 06:26:11;;;;;;;5.97;4.73;;;8.90;99.90;8.80;100362.00;;;;4899853;28;87924;-66
2022/11/05 06:28:36;;;;;;;6.33;4.13;;;8.90;99.90;8.80;100364.00;;;;4898122;28;88449;-66
2022/11/05 06:31:02;;;;;;;7.27;4.83;;;8.90;99.90;8.80;100370.00;;;;4894863;28;110209;-66
2022/11/05 06:33:28;;;;;;;5.83;4.90;;;8.90;99.90;8.80;100367.00;;;;4904158;28;87791;-67
2022/11/05 06:35:58;;;;;;;6.63;4.50;;;8.90;99.90;8.80;100373.00;;;;4900853;28;108589;-67
2022/11/05 06:38:23;;;;;;;7.10;4.90;;;8.90;99.90;8.80;100382.00;;;;4896980;28;88292;-67
2022/11/05 06:40:49;;;;;;;12.20;5.20;;;8.90;99.90;8.80;100374.00;;;;4904101;28;117103;-65
2022/11/05 06:43:15;;;;;;;7.20;4.50;;;8.90;99.90;8.80;100374.00;;;;4901056;28;110514;-67
2022/11/05 06:45:41;;;;;;;6.67;3.90;;;8.90;99.90;8.80;100373.00;;;;4903196;28;88089;-68
2022/11/05 06:48:06;;;;;;;16.23;6.60;;;8.90;99.90;8.80;100382.00;;;;4901189;28;117248;-66
2022/11/05 06:50:32;;;;;;;7.03;5.80;;;9.10;99.90;8.80;100386.00;;;;4901630;28;117297;-65
2022/11/05 06:53:01;;;;;;;6.97;5.00;;;8.90;99.90;8.80;100392.00;;;;4900537;28;111185;-64
2022/11/05 06:55:30;;;;;;;7.33;4.70;;;8.90;99.90;8.80;100404.00;;;;4901899;28;102177;-65
2022/11/05 06:57:56;;;;;;;7.40;4.87;;;8.90;99.90;8.80;100399.00;;;;4903427;28;108805;-66
2022/11/05 07:00:22;;;;;;;5.90;4.67;;;8.90;99.90;8.80;100406.00;;;;4911724;28;99551;-65
2022/11/05 07:02:48;;;;;;;5.67;4.77;;;8.90;99.90;8.80;100409.00;;;;4896132;28;109989;-66
2022/11/05 07:05:15;;;;;;;6.23;4.63;;;9.20;99.90;8.80;100411.00;;;;4901606;28;89870;-65
2022/11/05 07:07:44;;;;;;;6.50;5.53;;;9.70;99.90;8.80;100420.00;;;;4903617;28;88369;-65
2022/11/05 07:10:13;;;;;;;12.07;6.17;;;8.90;99.90;8.80;100434.00;;;;4897171;28;88783;-65
2022/11/05 07:12:39;;;;;;;14.37;7.53;;;9.00;99.90;8.80;100433.00;;;;4897421;28;87342;-64
2022/11/05 07:15:06;;;;;;;8.53;5.77;;;8.90;99.90;8.90;100447.00;;;;4894447;28;107977;-67
2022/11/05 07:17:32;;;;;;;8.17;5.87;;;8.90;99.90;8.80;100451.00;;;;4910017;28;108608;-67
2022/11/05 07:19:57;;;;;;;11.53;9.90;;;9.00;99.90;8.90;100453.00;;;;4891772;28;117503;-66
2022/11/05 07:22:23;;;;;;;7.80;6.33;;;9.00;99.90;8.90;100442.00;;;;4895754;28;87859;-64
2022/11/05 07:24:49;;;;;;;7.47;5.20;;;9.00;99.90;8.90;100450.00;;;;4892466;28;108951;-66
2022/11/05 07:27:15;;;;;;;8.37;5.57;;;9.00;99.90;8.90;100456.00;;;;4894482;28;88874;-66
2022/11/05 07:29:41;;;;;;;6.13;5.17;;;8.90;99.90;8.90;100462.00;;;;4894271;28;88288;-66
2022/11/05 07:32:06;;;;;;;7.30;5.97;;;8.90;99.90;8.90;100463.00;;;;4896331;28;110481;-67
2022/11/05 07:34:32;;;;;;;10.37;5.73;;;8.90;99.90;8.80;100466.00;;;;4892366;28;108938;-68
2022/11/05 07:36:58;;;;;;;8.30;5.57;;;9.30;99.90;8.90;100479.00;;;;4909338;28;116957;-66
2022/11/05 07:39:24;;;;;;;8.00;6.30;;;8.90;99.90;8.80;100476.00;;;;4897710;28;116967;-65
2022/11/05 07:41:53;;;;;;;13.70;7.17;;;8.90;99.90;8.80;100493.00;;;;4893137;28;109890;-64
2022/11/05 07:44:20;;;;;;;9.07;5.33;;;9.00;99.90;8.90;100494.00;;;;4894072;28;89018;-65
2022/11/05 07:46:46;;;;;;;8.43;6.20;;;8.90;99.90;8.90;100499.00;;;;4894332;28;104308;-65
2022/11/05 07:49:12;;;;;;;7.90;5.93;;;9.00;99.90;8.90;100498.00;;;;4895564;28;118023;-65
2022/11/05 07:51:37;;;;;;;6.90;4.33;;;9.00;99.90;8.90;100506.00;;;;4895768;28;110298;-64
2022/11/05 07:54:03;;;;;;;8.53;5.00;;;9.00;99.90;8.90;100506.00;;;;4895505;28;108558;-64
2022/11/05 07:56:29;;;;;;;9.80;4.83;;;9.00;99.90;9.00;100510.00;;;;4892860;28;117036;-64
2022/11/05 07:58:54;;;;;;;7.60;6.10;;;9.00;99.90;9.00;100518.00;;;;4892122;28;120067;-64
2022/11/05 08:01:20;;;;;;;8.10;6.47;;;9.00;99.90;9.00;100519.00;;;;4896884;28;110010;-66
2022/11/05 08:03:45;;;;;;;9.90;7.37;;;9.10;99.90;9.00;100510.00;;;;4893018;28;109199;-66
2022/11/05 08:06:11;;;;;;;15.13;8.37;;;9.10;99.90;9.00;100508.00;;;;4893395;28;117673;-66
2022/11/05 08:08:37;;;;;;;20.53;7.97;;;9.10;99.90;9.10;100513.00;;;;4899058;28;118089;-65
2022/11/05 08:11:05;;;;;;;12.73;8.40;;;9.20;99.90;9.10;100517.00;;;;4901655;28;91745;-64
2022/11/05 08:13:31;;;;;;;12.93;8.03;;;9.20;99.90;9.10;100523.00;;;;4895040;28;88074;-64
2022/11/05 08:15:57;;;;;;;11.53;7.20;;;9.20;99.90;9.20;100532.00;;;;4889794;28;89212;-67
2022/11/05 08:18:30;;;;;;;20.90;8.63;;;9.30;99.90;9.20;100537.00;;;;4896115;28;88107;-64
2022/11/05 08:20:57;;;;;;;10.70;7.37;;;9.30;99.90;9.20;100541.00;;;;4899465;28;88334;-64
2022/11/05 08:23:23;;;;;;;13.37;7.60;;;9.30;99.90;9.30;100534.00;;;;4895427;28;87888;-65
2022/11/05 08:25:49;;;;;;;15.27;8.13;;;9.30;99.90;9.30;100541.00;;;;4890381;28;116866;-65
2022/11/05 08:28:15;;;;;;;12.27;8.03;;;9.40;99.90;9.40;100550.00;;;;4898483;28;117983;-66
2022/11/05 08:30:40;;;;;;;16.20;7.17;;;9.40;99.90;9.40;100549.00;;;;4894203;28;87998;-64
2022/11/05 08:33:11;;;;;;;13.90;8.73;;;9.40;99.90;9.50;100552.00;;;;4891828;28;105808;-66
2022/11/05 08:35:38;;;;;;;17.07;8.93;;;9.50;99.90;9.60;100548.00;;;;4887000;28;87978;-66
2022/11/05 08:38:06;;;;;;;15.63;7.80;;;9.60;99.90;9.60;100550.00;;;;4891137;28;88001;-66
2022/11/05 08:40:34;;;;;;;14.50;8.23;;;9.60;99.90;9.60;100554.00;;;;4891518;28;103489;-63
2022/11/05 08:43:02;;;;;;;17.30;8.00;;;9.70;99.90;9.60;100554.00;;;;4890534;28;94902;-67
2022/11/05 08:45:28;;;;;;;10.70;7.70;;;9.70;99.90;9.60;100562.00;;;;4890946;28;89034;-65
2022/11/05 08:48:08;;;;;;;11.03;7.63;;;9.70;99.90;9.70;100561.00;;;;4894938;28;87844;-64
2022/11/05 08:50:35;;;;;;;12.13;7.97;;;9.70;99.90;9.70;100558.00;;;;4896104;28;88621;-65
2022/11/05 08:53:02;;;;;;;10.17;6.80;;;9.70;99.90;9.70;100555.00;;;;4897853;28;88110;-66
2022/11/05 08:55:27;;;;;;;10.80;7.00;;;9.70;99.90;9.70;100556.00;;;;4893552;28;105419;-66
2022/11/05 08:57:58;;;;;;;11.23;7.20;;;9.70;99.90;9.60;100559.00;;;;4888015;28;115511;-64
2022/11/05 09:00:25;;;;;;;12.13;6.83;;;9.70;99.90;9.60;100566.00;;;;4892723;28;87924;-65
2022/11/05 09:02:51;;;;;;;11.50;6.50;;;9.40;99.90;9.70;100571.00;;;;4894364;28;88071;-67
2022/11/05 09:05:17;;;;;;;13.07;6.87;;;9.80;99.90;9.70;100574.00;;;;4896619;28;116176;-64
2022/11/05 09:07:43;;;;;;;9.00;6.03;;;9.80;99.90;10.00;100580.00;;;;4893276;28;117168;-65
2022/11/05 09:10:09;;;;;;;13.57;6.87;;;9.90;99.90;10.30;100583.00;;;;4896701;28;109491;-66
2022/11/05 09:12:34;;;;;;;18.30;7.90;;;10.20;99.90;10.60;100583.00;;;;4896326;28;88662;-66
2022/11/05 09:15:01;;;;;;;9.77;6.63;;;10.70;99.90;10.80;100576.00;;;;4894675;28;116642;-67
2022/11/05 09:17:26;;;;;;;12.50;6.93;;;10.80;99.90;10.90;100578.00;;;;4894001;28;87953;-66
2022/11/05 09:19:52;;;;;;;11.87;6.50;;;10.90;99.90;11.10;100592.00;;;;4894623;28;109609;-67
2022/11/05 09:22:17;;;;;;;11.63;6.57;;;11.10;99.90;11.10;100588.00;;;;4894121;28;108258;-66
2022/11/05 09:24:43;;;;;;;11.63;6.70;;;11.10;99.90;11.10;100594.00;;;;4894977;28;116659;-64
2022/11/05 09:27:12;;;;;;;9.03;5.80;;;11.20;99.90;11.00;100595.00;;;;4893033;28;117554;-66
2022/11/05 09:29:38;;;;;;;12.27;5.03;;;11.10;99.90;10.90;100609.00;;;;4896938;28;88028;-65
2022/11/05 09:32:04;;;;;;;6.80;5.20;;;11.00;99.90;10.80;100605.00;;;;4890229;28;103332;-64
2022/11/05 09:34:30;;;;;;;8.83;5.20;;;10.90;99.90;10.80;100606.00;;;;4895017;28;87784;-66
2022/11/05 09:36:56;;;;;;;9.20;5.27;;;10.90;99.90;10.80;100607.00;;;;4893143;28;117479;-63
2022/11/05 09:39:23;;;;;;;5.50;4.00;;;10.90;99.90;10.90;100612.00;;;;4890793;28;96825;-64
2022/11/05 09:41:50;;;;;;;8.10;5.27;;;10.90;99.90;10.90;100616.00;;;;4895319;28;88608;-64
2022/11/05 09:44:23;;;;;;;8.27;5.77;;;10.90;99.90;11.00;100609.00;;;;4895987;28;89222;-64
2022/11/05 09:46:56;;;;;;;8.90;4.87;;;11.00;99.90;11.10;100614.00;;;;4893143;28;110331;-65
2022/11/05 09:49:33;;;;;;;9.17;5.07;;;11.10;99.90;11.20;100613.00;;;;4890832;28;102793;-65
2022/11/05 09:52:00;;;;;;;13.07;5.83;;;11.20;99.90;11.20;100617.00;;;;4888917;28;87838;-64
2022/11/05 09:54:30;;;;;;;10.77;6.20;;;11.20;99.90;11.20;100616.00;;;;4895655;28;101782;-65
2022/11/05 09:56:56;;;;;;;6.63;5.13;;;11.30;99.90;11.30;100624.00;;;;4890917;28;88048;-67
2022/11/05 09:59:29;;;;;;;6.90;4.63;;;11.30;99.90;11.40;100619.00;;;;4890926;28;87954;-65
2022/11/05 10:02:11;;;;;;;9.10;5.57;;;11.40;99.90;11.40;100621.00;;;;4890368;28;88162;-64
2022/11/05 10:04:38;;;;;;;12.40;5.27;;;11.40;99.90;11.40;100625.00;;;;4891613;28;109110;-64
2022/11/05 10:07:06;;;;;;;4.90;4.40;;;11.40;99.90;11.40;100628.00;;;;4907436;28;88417;-64
2022/11/05 10:09:45;;;;;;;6.57;5.43;;;11.40;99.90;11.60;100625.00;;;;4891104;28;110834;-64
2022/11/05 10:12:19;;;;;;;6.87;4.33;;;11.60;99.90;11.70;100620.00;;;;4889559;28;88988;-64
2022/11/05 10:14:54;;;;;;;8.03;4.43;;;11.70;99.90;12.00;100624.00;;;;4893293;28;112551;-65
2022/11/05 10:17:24;;;;;;;6.17;4.57;;;11.90;99.90;12.30;100633.00;;;;4889035;28;109612;-63
2022/11/05 10:19:57;;;;;;;7.63;4.17;;;12.20;99.90;12.60;100633.00;;;;4876192;28;101487;-64
2022/11/05 10:22:23;;;;;;;5.97;3.97;;;12.50;99.90;12.90;100635.00;;;;4890596;28;101440;-64
2022/11/05 10:24:51;;;;;;;7.77;5.10;;;12.80;99.90;13.10;100641.00;;;;4893242;28;118249;-63
2022/11/05 10:27:50;;;;;;;4.50;3.67;;;13.00;99.90;13.20;100638.00;;;;4891959;28;88439;-64
2022/11/05 10:30:15;;;;;;;5.50;3.87;;;13.10;99.90;13.10;100643.00;;;;4890962;28;87148;-65
2022/11/05 10:32:43;;;;;;;3.93;2.90;;;13.20;99.90;13.00;100647.00;;;;4893811;28;108229;-63
2022/11/05 10:35:17;;;;;;;6.00;3.27;;;13.10;99.90;13.00;100651.00;;;;4898603;28;88301;-64
2022/11/05 10:37:45;;;;;;;6.97;3.73;;;13.10;99.90;12.80;100656.00;;;;4892315;28;89065;-64
2022/11/05 10:40:51;;;;;;;4.10;3.70;;;12.90;99.90;12.70;100658.00;;;;4893327;28;87852;-64
2022/11/05 10:43:35;;;;;;;4.57;3.03;;;12.80;99.90;12.80;100648.00;;;;4893850;28;87996;-63
2022/11/05 10:46:31;;;;;;;5.30;4.37;;;12.80;99.90;13.20;100660.00;;;;4892956;28;88423;-63
2022/11/05 10:49:06;;;;;;;4.40;4.00;;;13.10;99.90;13.50;100657.00;;;;4895791;28;88681;-63
2022/11/05 10:51:32;;;;;;;10.57;3.97;;;13.40;99.90;13.90;100657.00;;;;4892010;28;88151;-63
2022/11/05 10:54:12;;;;;;;6.10;3.73;;;13.70;99.90;14.30;100665.00;;;;4897579;28;96510;-64
2022/11/05 10:56:40;;;;;;;4.90;3.70;;;14.10;99.90;14.50;100675.00;;;;4900900;28;87710;-64
2022/11/05 10:59:21;;;;;;;5.47;4.00;;;14.40;99.90;14.40;100669.00;;;;4895104;28;88047;-63
2022/11/05 11:01:46;;;;;;;4.33;3.20;;;14.40;99.90;14.30;100670.00;;;;4894145;28;87934;-64
2022/11/05 11:04:25;;;;;;;6.13;2.80;;;14.30;99.90;14.10;100668.00;;;;4898450;28;89086;-63
2022/11/05 11:06:54;;;;;;;5.33;2.83;;;14.20;99.90;14.10;100666.00;;;;4897184;28;88864;-62
2022/11/05 11:09:30;;;;;;;5.77;3.83;;;14.10;99.90;14.30;100666.00;;;;4899460;28;103861;-62
2022/11/05 11:12:05;;;;;;;3.97;3.03;;;14.20;99.90;14.40;100666.00;;;;4894045;28;87825;-63
2022/11/05 11:14:31;;;;;;;11.23;3.80;;;14.30;99.90;14.60;100666.00;;;;4912204;28;87809;-62
2022/11/05 11:17:29;;;;;;;4.57;2.77;;;14.50;99.90;15.10;100667.00;;;;4895906;28;88198;-62
2022/11/05 11:20:24;;;;;;;3.90;3.07;;;14.80;99.90;15.50;100671.00;;;;4896363;28;87927;-61
2022/11/05 11:23:13;;;;;;;6.13;3.00;;;15.30;99.90;15.80;100664.00;;;;4889320;28;88341;-62
2022/11/05 11:25:59;;;;;;;2.78;2.50;;;15.60;99.90;16.10;100675.00;;;;4891765;28;87592;-63
2022/11/05 11:28:32;;;;;;;3.63;2.38;;;15.90;99.90;16.30;100677.00;;;;4895328;28;88592;-63
2022/11/05 11:31:16;;;;;;;2.70;2.28;;;16.10;99.90;16.40;100692.00;;;;4908804;28;88689;-63
2022/11/05 11:33:47;;;;;;;3.63;2.13;;;16.30;99.90;16.10;100687.00;;;;4891859;28;88457;-62
2022/11/05 11:36:16;;;;;;;7.60;2.60;;;16.20;99.90;15.70;100676.00;;;;4895603;28;102466;-62
2022/11/05 11:38:43;;;;;;;2.40;1.70;;;15.80;99.90;15.30;100687.00;;;;4890150;28;89164;-61
2022/11/05 11:41:30;;;;;;;3.90;2.60;;;15.40;99.90;15.20;100677.00;;;;4893200;28;88968;-63
2022/11/05 11:44:12;;;;;;;4.75;2.47;;;15.20;99.90;15.40;100684.00;;;;4892046;28;87864;-63
2022/11/05 11:46:38;;;;;;;4.70;2.65;;;15.30;99.90;15.40;100681.00;;;;4910700;28;102501;-62
2022/11/05 11:49:05;;;;;;;5.00;2.25;;;15.30;99.90;15.30;100685.00;;;;4899513;28;117294;-60
2022/11/05 11:51:43;;;;;;;4.05;2.10;;;15.30;99.90;15.20;100690.00;;;;4897574;28;87945;-62